createdAt,value
2022-09-20T00:01:21.174Z,16.82
2022-09-20T00:03:54.299Z,15.81
2022-09-20T00:06:57.150Z,15.01
2022-09-20T00:10:43.252Z,14.29
2022-09-20T01:49:53.243Z,15.43
2022-09-20T01:52:33.708Z,14.49
2022-09-20T01:55:20.963Z,13.96
2022-09-20T01:58:12.027Z,15.04
2022-09-20T02:01:00.533Z,16.08
2022-09-20T02:03:47.501Z,16.70
2022-09-20T02:06:42.097Z,16.35
2022-09-20T02:09:19.437Z,15.29
2022-09-20T02:12:07.573Z,14.54
2022-09-20T02:14:42.429Z,13.92
2022-09-20T02:17:12.960Z,13.50
2022-09-20T02:19:49.652Z,13.16
2022-09-20T02:22:41.356Z,12.85
2022-09-20T02:25:18.459Z,13.11
2022-09-20T02:28:08.879Z,14.55
2022-09-20T02:38:21.694Z,15.60
2022-09-20T02:41:12.903Z,14.69
2022-09-20T02:43:45.474Z,13.97
2022-09-20T02:46:19.384Z,13.46
2022-09-20T02:49:16.606Z,13.12
2022-09-20T02:52:04.390Z,14.16
2022-09-20T02:54:35.004Z,15.51
2022-09-20T03:05:19.563Z,15.66
2022-09-20T03:08:17.501Z,14.63
2022-09-20T03:20:07.756Z,15.94
2022-09-20T03:26:59.998Z,16.08
2022-09-20T03:29:42.464Z,15.18
2022-09-20T03:32:19.700Z,14.41
2022-09-20T03:34:52.693Z,13.84
2022-09-20T03:42:29.580Z,13.09
2022-09-20T03:44:12.667Z,12.83
2022-09-20T03:48:29.639Z,13.77
2022-09-20T03:57:36.238Z,16.01
2022-09-20T04:01:03.240Z,15.93
2022-09-20T04:21:40.346Z,16.69
2022-09-20T04:24:17.241Z,15.72
2022-09-20T04:26:45.533Z,14.79
2022-09-20T04:29:26.378Z,14.26
2022-09-20T04:32:13.317Z,15.04
2022-09-20T04:35:01.960Z,16.02
2022-09-20T04:37:38.584Z,16.59
2022-09-20T04:40:13.867Z,16.08
2022-09-20T04:43:00.191Z,15.06
2022-09-20T04:45:41.690Z,14.29
2022-09-20T04:48:09.830Z,14.93
2022-09-20T04:50:37.889Z,15.96
2022-09-20T04:53:07.303Z,16.71
2022-09-20T04:55:38.053Z,16.87
2022-09-20T04:58:24.189Z,16.08
2022-09-20T05:01:19.447Z,15.08
2022-09-20T05:04:05.730Z,14.28
2022-09-20T05:06:43.469Z,13.75
2022-09-20T05:09:16.341Z,14.14
2022-09-20T05:12:03.224Z,15.39
2022-09-20T05:14:34.793Z,16.37
2022-09-20T05:17:17.719Z,16.95
2022-09-20T05:19:58.546Z,17.26
2022-09-20T05:22:41.542Z,16.40
2022-09-20T05:25:28.217Z,15.41
2022-09-20T05:27:57.370Z,14.67
2022-09-20T05:30:42.496Z,14.32
2022-09-20T05:33:13.528Z,15.19
2022-09-20T05:35:41.691Z,16.24
2022-09-20T05:41:18.666Z,17.23
2022-09-20T05:43:59.393Z,16.33
2022-09-20T05:46:46.453Z,15.38
2022-09-20T05:49:17.052Z,14.70
2022-09-20T05:51:51.332Z,14.20
2022-09-20T05:54:38.349Z,14.03
2022-09-20T05:57:21.437Z,15.04
2022-09-20T06:00:07.711Z,16.05
2022-09-20T06:02:44.998Z,16.75
2022-09-20T06:05:16.928Z,17.03
2022-09-20T06:07:46.115Z,16.50
2022-09-20T06:10:20.321Z,15.65
2022-09-20T06:13:03.323Z,14.94
2022-09-20T06:15:44.912Z,14.39
2022-09-20T06:18:33.524Z,14.07
2022-09-20T06:21:21.409Z,14.91
2022-09-20T06:23:49.650Z,16.00
2022-09-20T06:26:23.628Z,16.63
2022-09-20T06:28:55.296Z,17.09
2022-09-20T06:31:26.293Z,16.61
2022-09-20T06:34:03.917Z,15.78
2022-09-20T06:36:50.932Z,15.04
2022-09-20T06:39:47.189Z,14.51
2022-09-20T06:42:14.808Z,14.39
2022-09-20T06:44:43.300Z,15.39
2022-09-20T06:47:11.168Z,16.30
2022-09-20T06:49:42.340Z,16.91
2022-09-20T06:52:17.665Z,17.20
2022-09-20T06:54:46.358Z,16.70
2022-09-20T06:57:15.873Z,15.90
2022-09-20T06:59:44.037Z,15.29
2022-09-20T07:02:12.806Z,14.86
2022-09-20T07:04:40.917Z,15.16
2022-09-20T07:07:09.585Z,16.14
2022-09-20T07:09:37.529Z,16.89
2022-09-20T07:12:05.287Z,17.25
2022-09-20T07:14:32.939Z,16.69
2022-09-20T07:17:00.560Z,15.93
2022-09-20T07:19:28.186Z,15.41
2022-09-20T07:21:55.817Z,15.05
2022-09-20T07:24:23.421Z,15.40
2022-09-20T07:26:59.382Z,16.40
2022-09-20T07:29:27.357Z,17.11
2022-09-20T07:31:55.990Z,16.88
2022-09-20T07:34:24.027Z,16.20
2022-09-20T07:36:52.298Z,15.59
2022-09-20T07:39:20.097Z,15.12
2022-09-20T07:41:50.716Z,14.81
2022-09-20T07:44:22.183Z,14.58
2022-09-20T07:46:53.905Z,14.54
2022-09-20T07:49:22.071Z,15.40
2022-09-20T07:51:50.279Z,16.33
2022-09-20T07:54:18.092Z,17.12
2022-09-20T07:56:45.951Z,17.57
2022-09-20T07:59:14.307Z,17.08
2022-09-20T08:01:42.287Z,16.52
2022-09-20T08:04:10.326Z,16.19
2022-09-20T08:06:39.191Z,15.97
2022-09-20T08:09:10.884Z,15.77
2022-09-20T08:11:39.823Z,15.60
2022-09-20T08:14:08.983Z,15.41
2022-09-20T08:16:38.155Z,15.28
2022-09-20T08:19:05.840Z,15.19
2022-09-20T08:21:36.155Z,15.25
2022-09-20T08:24:04.134Z,16.25
2022-09-20T08:26:32.279Z,17.29
2022-09-20T08:29:00.246Z,17.55
2022-09-20T08:31:35.587Z,16.95
2022-09-20T08:34:04.749Z,16.24
2022-09-20T08:36:36.326Z,15.68
2022-09-20T08:41:57.339Z,15.07
2022-09-20T08:44:47.073Z,15.07
2022-09-20T08:47:14.981Z,16.17
2022-09-20T08:49:46.183Z,17.33
2022-09-20T08:52:48.018Z,17.33
2022-09-20T08:55:20.158Z,16.54
2022-09-20T08:57:49.266Z,15.98
2022-09-20T09:00:18.594Z,15.57
2022-09-20T09:02:47.136Z,15.24
2022-09-20T09:05:33.534Z,14.96
2022-09-20T09:08:21.970Z,14.76
2022-09-20T09:10:54.781Z,15.25
2022-09-20T09:13:27.187Z,16.32
2022-09-20T09:16:00.119Z,17.09
2022-09-20T09:18:31.623Z,16.98
2022-09-20T09:21:04.247Z,16.34
2022-09-20T09:23:37.958Z,15.79
2022-09-20T09:26:11.959Z,15.40
2022-09-20T09:28:39.621Z,15.13
2022-09-20T09:31:22.197Z,15.16
2022-09-20T09:33:50.055Z,16.18
2022-09-20T09:36:22.557Z,17.17
2022-09-20T09:38:50.206Z,17.93
2022-09-20T09:41:18.169Z,17.83
2022-09-20T09:43:45.859Z,17.46
2022-09-20T09:46:17.727Z,17.12
2022-09-20T09:48:50.117Z,16.90
2022-09-20T09:51:18.884Z,16.67
2022-09-20T09:53:47.479Z,16.56
2022-09-20T10:02:31.970Z,16.16
2022-09-20T10:05:04.030Z,16.00
2022-09-20T10:07:49.337Z,16.05
2022-09-20T10:11:00.153Z,16.30
2022-09-20T10:13:39.733Z,16.41
2022-09-20T10:20:52.512Z,16.70
2022-09-20T10:24:02.694Z,16.80
2022-09-20T10:26:51.553Z,16.84
2022-09-20T10:29:27.606Z,17.15
2022-09-20T10:32:20.474Z,17.53
2022-09-20T10:34:53.067Z,17.69
2022-09-20T10:37:37.390Z,17.88
2022-09-20T10:41:00.559Z,18.04
2022-09-20T10:44:04.950Z,18.46
2022-09-20T10:46:52.468Z,18.77
2022-09-20T10:49:41.756Z,18.74
2022-09-20T10:52:51.123Z,18.84
2022-09-20T10:55:29.790Z,18.98
2022-09-20T10:58:06.081Z,18.79
2022-09-20T11:06:00.215Z,18.00
2022-09-20T11:08:33.120Z,18.03
2022-09-20T11:11:02.280Z,18.29
2022-09-20T11:13:45.087Z,18.64
2022-09-20T11:16:18.465Z,19.00
2022-09-20T11:18:53.402Z,19.31
2022-09-20T11:25:39.961Z,19.13
2022-09-20T11:28:17.937Z,19.39
2022-09-20T11:30:55.197Z,19.40
2022-09-20T11:33:45.244Z,19.15
2022-09-20T11:36:58.509Z,18.79
2022-09-20T11:39:37.577Z,18.40
2022-09-20T11:42:05.073Z,18.06
2022-09-20T11:44:32.285Z,17.82
2022-09-20T11:47:07.031Z,17.64
2022-09-20T11:50:01.698Z,17.56
2022-09-20T11:52:33.771Z,17.63
2022-09-20T11:55:25.584Z,17.81
2022-09-20T11:58:04.283Z,18.22
2022-09-20T12:56:07.713Z,20.94
2022-09-20T12:58:44.564Z,21.13
2022-09-20T13:01:14.360Z,21.25
2022-09-20T13:03:43.609Z,21.48
2022-09-20T13:06:19.017Z,21.71
2022-09-20T13:09:03.798Z,21.93
2022-09-20T13:11:40.704Z,22.23
2022-09-20T13:14:07.134Z,22.49
2022-09-20T13:16:58.493Z,22.78
2022-09-20T13:28:43.616Z,23.37
2022-09-20T13:31:19.918Z,23.45
2022-09-20T13:33:47.405Z,23.55
2022-09-20T13:36:14.082Z,23.87
2022-09-20T13:38:40.864Z,24.30
2022-09-20T13:41:12.295Z,24.58
2022-09-20T13:52:26.298Z,26.40
2022-09-20T13:54:54.730Z,26.76
2022-09-20T13:57:27.314Z,27.13
2022-09-20T13:59:54.358Z,27.46
2022-09-20T14:02:26.352Z,27.79
2022-09-20T14:04:54.712Z,28.19
2022-09-20T14:07:25.299Z,28.57
2022-09-20T14:09:53.145Z,28.96
2022-09-20T14:12:21.619Z,29.33
2022-09-20T14:14:49.521Z,29.63
2022-09-20T14:17:20.877Z,30.00
2022-09-20T14:19:51.098Z,30.46
2022-09-20T14:22:27.971Z,30.93
2022-09-20T14:25:12.742Z,31.45
2022-09-20T14:27:39.279Z,31.95
2022-09-20T14:39:14.993Z,33.28
2022-09-20T14:41:42.854Z,32.66
2022-09-20T14:44:30.851Z,31.63
2022-09-20T14:46:57.818Z,30.94
2022-09-20T14:49:25.594Z,30.84
2022-09-20T14:51:53.269Z,31.21
2022-09-20T14:54:30.254Z,31.59
2022-09-20T14:57:01.006Z,31.77
2022-09-20T14:59:34.643Z,31.55
2022-09-20T15:02:09.374Z,31.41
2022-09-20T15:04:37.207Z,31.12
2022-09-20T15:07:10.283Z,30.35
2022-09-20T15:09:37.691Z,29.13
2022-09-20T15:12:06.538Z,27.88
2022-09-20T15:14:37.472Z,26.72
2022-09-20T15:17:04.771Z,25.65
2022-09-20T15:19:31.199Z,24.63
2022-09-20T18:36:17.784Z,14.69
2022-09-20T18:38:45.225Z,15.79
2022-09-20T18:41:13.826Z,16.43
2022-09-20T18:43:43.868Z,16.80
2022-09-20T18:46:11.655Z,16.16
2022-09-20T18:48:39.542Z,15.46
2022-09-20T18:51:07.707Z,14.92
2022-09-20T18:53:41.830Z,14.52
2022-09-20T18:56:23.065Z,14.18
2022-09-20T18:58:52.584Z,13.90
2022-09-20T19:01:25.839Z,13.93
2022-09-20T19:04:32.733Z,14.98
2022-09-20T19:07:26.674Z,16.06
2022-09-20T19:10:08.216Z,16.49
2022-09-20T19:17:06.197Z,14.95
2022-09-20T19:19:46.026Z,14.54
2022-09-20T19:23:00.365Z,14.22
2022-09-20T19:25:44.928Z,13.88
2022-09-20T19:28:15.105Z,13.99
2022-09-20T19:30:42.460Z,15.07
2022-09-20T19:38:16.146Z,16.10
2022-09-20T19:41:15.521Z,15.29
2022-09-20T19:44:03.652Z,14.68
2022-09-20T19:46:46.784Z,14.23
2022-09-20T19:50:03.932Z,13.90
2022-09-20T19:52:30.814Z,13.57
2022-09-20T19:54:57.801Z,13.57
2022-09-20T19:57:49.032Z,14.35
2022-09-20T20:00:21.590Z,15.26
2022-09-20T20:02:49.031Z,16.04
2022-09-20T20:05:20.819Z,16.35
2022-09-20T20:08:16.417Z,15.77
2022-09-20T20:10:54.780Z,14.98
2022-09-20T20:14:00.636Z,14.46
2022-09-20T20:16:32.947Z,13.95
2022-09-20T20:19:09.445Z,13.64
2022-09-20T20:21:47.224Z,13.62
2022-09-20T20:24:37.570Z,14.70
2022-09-20T20:27:05.302Z,15.79
2022-09-20T20:29:31.774Z,16.00
2022-09-20T20:31:58.341Z,15.36
2022-09-20T20:34:26.206Z,14.60
2022-09-20T20:37:00.165Z,14.02
2022-09-20T20:39:28.208Z,13.56
2022-09-20T20:41:54.882Z,13.42
2022-09-20T20:44:21.562Z,14.30
2022-09-20T20:46:48.406Z,15.26
2022-09-20T20:49:17.141Z,15.91
2022-09-20T20:51:44.179Z,16.15
2022-09-20T20:54:13.948Z,15.49
2022-09-20T20:56:40.588Z,14.72
2022-09-20T20:59:07.918Z,14.15
2022-09-20T21:01:42.217Z,13.71
2022-09-20T21:04:11.606Z,13.34
2022-09-20T21:06:40.264Z,13.33
2022-09-20T21:09:12.543Z,14.40
2022-09-20T21:11:43.452Z,15.37
2022-09-20T21:14:11.762Z,15.83
2022-09-20T21:16:42.378Z,15.20
2022-09-20T21:19:13.947Z,14.41
2022-09-20T21:21:43.083Z,13.76
2022-09-20T21:24:31.300Z,13.52
2022-09-20T21:27:00.567Z,14.54
2022-09-20T21:29:27.734Z,15.31
2022-09-20T21:31:54.336Z,15.82
2022-09-20T21:34:20.987Z,16.00
2022-09-20T21:36:47.555Z,15.35
2022-09-20T21:39:14.862Z,14.62
2022-09-20T21:41:41.388Z,14.03
2022-09-20T21:44:11.480Z,13.58
2022-09-20T21:46:39.728Z,13.23
2022-09-20T21:49:09.440Z,13.22
2022-09-20T21:51:37.525Z,14.31
2022-09-20T21:54:05.034Z,15.22
2022-09-20T21:56:33.424Z,15.77
2022-09-20T21:59:03.314Z,15.94
2022-09-20T22:01:34.397Z,15.20
2022-09-20T22:04:07.031Z,14.43
2022-09-20T22:06:40.145Z,13.86
2022-09-20T22:09:09.115Z,13.62
2022-09-20T22:11:43.924Z,14.55
2022-09-20T22:14:13.838Z,15.44
2022-09-20T22:16:42.243Z,15.83
2022-09-20T22:19:12.477Z,15.26
2022-09-20T22:21:41.391Z,14.52
2022-09-20T22:24:11.409Z,13.94
2022-09-20T22:26:40.248Z,13.46
2022-09-20T22:29:09.036Z,13.30
2022-09-20T22:31:38.359Z,14.25
2022-09-20T22:34:06.585Z,15.26
2022-09-20T22:36:35.525Z,15.69
2022-09-20T22:39:06.756Z,15.14
2022-09-20T22:41:34.124Z,14.40
2022-09-20T22:44:00.878Z,13.83
2022-09-20T22:46:29.159Z,13.40
2022-09-20T22:48:56.882Z,13.02
2022-09-20T22:51:25.875Z,13.01
2022-09-20T22:53:53.732Z,14.07
2022-09-20T22:56:22.657Z,14.99
2022-09-20T22:58:53.447Z,15.60
2022-09-20T23:01:22.047Z,15.69
2022-09-20T23:04:00.501Z,14.94
2022-09-20T23:06:31.113Z,14.16
2022-09-20T23:09:00.518Z,13.55
2022-09-20T23:11:28.231Z,13.11
2022-09-20T23:14:05.293Z,13.02
2022-09-20T23:16:34.085Z,14.11
2022-09-20T23:19:02.642Z,15.02
2022-09-20T23:21:29.670Z,15.40
2022-09-20T23:23:58.256Z,14.82
2022-09-20T23:26:26.153Z,14.08
2022-09-20T23:28:57.570Z,13.47
2022-09-20T23:31:25.721Z,13.01
2022-09-20T23:33:55.017Z,12.92
2022-09-20T23:36:22.683Z,13.94
2022-09-20T23:38:49.857Z,14.95
2022-09-20T23:41:20.092Z,15.44
2022-09-20T23:43:47.247Z,14.90
2022-09-20T23:46:15.207Z,14.20
2022-09-20T23:48:42.218Z,13.67
2022-09-20T23:51:11.213Z,13.27
2022-09-20T23:53:38.196Z,12.93
2022-09-20T23:56:05.609Z,12.89
2022-09-20T23:58:35.321Z,13.91
